Time;durP1;ratioP1;P1;durP2;ratioP2;P2;SDS_P1;SDS_P2;PMS_P1;PMS_P2;Temp;Humidity;BMP_temperature;BMP_pressure;BME280_temperature;BME280_humidity;BME280_pressure;Samples;Min_cycle;Max_cycle;Signal;HPM_P1;HPM_P2
2024/01/01 00:00:55;;;;;;;26.52;8.00;;;11.30;99.90;;;;;;5095134;28;20065;-73
2024/01/01 00:03:20;;;;;;;22.65;6.38;;;11.30;99.90;;;;;;5094996;28;20024;-73
2024/01/01 00:05:46;;;;;;;20.15;5.50;;;11.30;99.90;;;;;;5095033;28;20040;-73
2024/01/01 00:08:11;;;;;;;22.23;5.70;;;11.30;99.90;;;;;;5095166;28;20389;-73
2024/01/01 00:10:37;;;;;;;24.42;6.32;;;11.30;99.90;;;;;;5094934;28;20024;-73
2024/01/01 00:13:03;;;;;;;22.50;5.70;;;11.30;99.90;;;;;;5094890;28;20013;-73
2024/01/01 00:15:28;;;;;;;24.40;6.30;;;11.30;99.90;;;;;;5094415;28;20019;-73
2024/01/01 00:17:54;;;;;;;22.35;6.28;;;11.20;99.90;;;;;;5094828;28;20470;-73
2024/01/01 00:20:20;;;;;;;22.63;6.35;;;11.20;99.90;;;;;;5095134;28;20032;-73
2024/01/01 00:22:47;;;;;;;19.55;5.65;;;11.20;99.90;;;;;;5094669;28;20077;-73
2024/01/01 00:25:12;;;;;;;18.38;4.40;;;11.30;99.90;;;;;;5094506;28;20111;-73
2024/01/01 00:27:38;;;;;;;9.35;2.55;;;11.20;99.90;;;;;;5093738;28;20116;-73
2024/01/01 00:30:04;;;;;;;9.55;2.97;;;11.00;99.90;;;;;;5094179;28;20073;-73
2024/01/01 00:32:30;;;;;;;10.88;2.90;;;10.90;99.90;;;;;;5094529;28;20016;-73
2024/01/01 00:34:55;;;;;;;10.98;2.78;;;10.70;99.90;;;;;;5094457;28;21061;-74
2024/01/01 00:37:22;;;;;;;11.65;3.33;;;10.70;99.90;;;;;;5094424;28;20111;-73
2024/01/01 00:39:47;;;;;;;13.32;3.30;;;10.70;99.90;;;;;;5094574;28;20482;-73
2024/01/01 00:42:13;;;;;;;8.20;2.90;;;10.70;99.90;;;;;;5094159;28;20053;-73
2024/01/01 00:44:39;;;;;;;13.48;3.53;;;10.70;99.90;;;;;;5093823;28;20028;-73
2024/01/01 00:47:04;;;;;;;12.82;3.65;;;10.70;99.90;;;;;;5094108;28;20399;-73
2024/01/01 00:49:30;;;;;;;11.95;3.30;;;10.60;99.90;;;;;;5094540;28;20514;-73
2024/01/01 00:51:55;;;;;;;14.02;3.40;;;10.60;99.90;;;;;;5094214;28;20428;-73
2024/01/01 00:54:24;;;;;;;19.05;4.60;;;10.60;99.90;;;;;;5092725;28;20055;-73
2024/01/01 00:56:54;;;;;;;18.15;4.90;;;10.80;99.90;;;;;;5093988;28;20432;-73
2024/01/01 00:59:20;;;;;;;17.80;5.00;;;11.00;99.90;;;;;;5093557;28;20042;-73
2024/01/01 01:01:45;;;;;;;20.95;6.38;;;11.30;99.90;;;;;;5094068;28;20012;-73
2024/01/01 01:04:11;;;;;;;21.92;5.97;;;11.30;99.90;;;;;;5093730;28;20034;-73
2024/01/01 01:06:37;;;;;;;25.33;5.85;;;11.30;99.90;;;;;;5093657;28;20048;-73
2024/01/01 01:09:03;;;;;;;18.90;5.30;;;11.30;99.90;;;;;;5093871;28;20028;-73
2024/01/01 01:11:29;;;;;;;18.45;5.20;;;11.30;99.90;;;;;;5093569;28;20036;-73
2024/01/01 01:13:56;;;;;;;20.27;5.47;;;11.30;99.90;;;;;;5093818;28;20026;-73
2024/01/01 01:16:23;;;;;;;20.90;5.85;;;11.40;99.90;;;;;;5093358;28;20032;-73
2024/01/01 01:18:48;;;;;;;21.83;5.63;;;11.20;99.90;;;;;;5093776;28;20423;-73
2024/01/01 01:21:14;;;;;;;23.58;5.82;;;11.00;99.90;;;;;;5093677;28;20070;-73
2024/01/01 01:23:42;;;;;;;16.45;4.72;;;10.90;99.90;;;;;;5093466;28;20115;-73
2024/01/01 01:26:07;;;;;;;23.38;5.70;;;10.80;99.90;;;;;;5093459;28;20032;-69
2024/01/01 01:28:33;;;;;;;23.42;5.97;;;10.70;99.90;;;;;;5093307;28;20474;-74
2024/01/01 01:31:01;;;;;;;26.90;6.22;;;10.70;99.90;;;;;;5093518;28;20074;-73
2024/01/01 01:33:27;;;;;;;24.38;6.07;;;10.60;99.90;;;;;;5093363;28;20024;-74
2024/01/01 01:35:52;;;;;;;22.75;6.30;;;10.60;99.90;;;;;;5093501;28;20036;-73
2024/01/01 01:38:18;;;;;;;20.70;5.50;;;10.60;99.90;;;;;;5092179;28;20031;-73
2024/01/01 01:40:44;;;;;;;26.48;6.97;;;10.60;99.90;;;;;;5092698;28;20085;-73
2024/01/01 01:43:23;;;;;;;26.42;7.00;;;10.60;99.90;;;;;;5093243;28;20485;-73
2024/01/01 01:45:50;;;;;;;25.05;6.45;;;10.70;99.90;;;;;;5092970;28;20425;-73
2024/01/01 01:48:17;;;;;;;23.42;6.60;;;10.70;99.90;;;;;;5093280;28;20019;-73
2024/01/01 01:50:46;;;;;;;25.30;6.43;;;10.80;99.90;;;;;;5092651;28;20050;-73
2024/01/01 01:53:13;;;;;;;24.00;5.95;;;10.80;99.90;;;;;;5093257;28;20481;-73
2024/01/01 01:55:45;;;;;;;26.33;5.97;;;10.90;99.90;;;;;;5092116;28;20028;-73
2024/01/01 01:58:11;;;;;;;22.33;6.32;;;10.90;99.90;;;;;;5092865;28;20012;-74
2024/01/01 02:00:38;;;;;;;24.92;6.32;;;10.90;99.90;;;;;;5092884;28;20032;-74
2024/01/01 02:03:06;;;;;;;17.90;5.03;;;11.00;99.90;;;;;;5092948;28;20044;-74
2024/01/01 02:05:32;;;;;;;24.30;6.13;;;11.00;99.90;;;;;;5092805;28;20452;-74
2024/01/01 02:07:59;;;;;;;18.92;5.22;;;11.00;99.90;;;;;;5092810;28;20032;-73
2024/01/01 02:10:25;;;;;;;24.92;5.93;;;11.00;99.90;;;;;;5092414;28;20024;-73
2024/01/01 02:12:51;;;;;;;23.20;5.90;;;11.00;99.90;;;;;;5092941;28;20466;-73
2024/01/01 02:15:16;;;;;;;19.25;4.85;;;11.10;99.90;;;;;;5092513;28;20024;-74
2024/01/01 02:17:42;;;;;;;20.73;5.53;;;11.10;99.90;;;;;;5092637;28;20035;-73
2024/01/01 02:20:08;;;;;;;22.90;5.22;;;11.00;99.90;;;;;;5092582;28;20028;-74
2024/01/01 02:22:41;;;;;;;20.25;5.00;;;11.10;99.90;;;;;;5092843;28;20103;-73
2024/01/01 02:25:08;;;;;;;20.60;5.00;;;11.00;99.90;;;;;;5092008;28;20040;-74
2024/01/01 02:27:36;;;;;;;20.85;5.20;;;11.10;99.90;;;;;;5092340;28;20031;-73
2024/01/01 02:30:02;;;;;;;22.40;5.35;;;11.00;99.90;;;;;;5092266;28;20020;-73
2024/01/01 02:32:28;;;;;;;27.73;5.68;;;11.10;99.90;;;;;;5092409;28;20047;-73
2024/01/01 02:34:53;;;;;;;24.27;5.60;;;11.10;99.90;;;;;;5092246;28;20547;-73
2024/01/01 02:37:19;;;;;;;25.23;5.72;;;11.10;99.90;;;;;;5092360;28;20145;-73
2024/01/01 02:39:45;;;;;;;21.25;5.32;;;11.10;99.90;;;;;;5092411;28;20028;-73
2024/01/01 02:42:10;;;;;;;21.35;5.43;;;11.10;99.90;;;;;;5092149;28;20359;-73
2024/01/01 02:44:36;;;;;;;20.40;5.45;;;11.20;99.90;;;;;;5092075;28;20044;-73
2024/01/01 02:47:02;;;;;;;17.30;4.35;;;11.50;99.90;;;;;;5092174;28;20497;-73
2024/01/01 02:49:28;;;;;;;19.67;4.68;;;11.80;99.90;;;;;;5093928;28;20048;-73
2024/01/01 02:51:53;;;;;;;17.45;4.07;;;11.80;99.90;;;;;;5099375;28;20100;-73
2024/01/01 02:54:19;;;;;;;12.70;3.45;;;11.90;99.90;;;;;;5098462;28;20557;-73
2024/01/01 02:56:45;;;;;;;18.25;4.65;;;12.00;99.90;;;;;;5098872;28;20028;-73
2024/01/01 02:59:11;;;;;;;17.35;3.63;;;12.00;99.90;;;;;;5099339;28;20020;-73
2024/01/01 03:01:37;;;;;;;17.27;4.82;;;12.20;99.90;;;;;;5098776;28;20028;-74
2024/01/01 03:04:02;;;;;;;15.80;4.30;;;12.10;99.90;;;;;;5098711;28;20020;-74
2024/01/01 03:06:28;;;;;;;16.92;4.55;;;12.00;99.90;;;;;;5098663;28;20489;-74
2024/01/01 03:08:54;;;;;;;17.38;4.28;;;11.90;99.90;;;;;;5098312;28;20035;-74
2024/01/01 03:11:19;;;;;;;16.10;4.78;;;11.80;99.90;;;;;;5098748;28;20032;-74
2024/01/01 03:13:45;;;;;;;21.42;5.00;;;11.60;99.90;;;;;;5099231;28;20496;-74
2024/01/01 03:16:14;;;;;;;20.27;4.82;;;11.60;99.90;;;;;;5098717;28;20048;-74
2024/01/01 03:18:40;;;;;;;19.25;4.60;;;11.60;99.90;;;;;;5098687;28;20495;-74
2024/01/01 03:21:06;;;;;;;19.25;4.30;;;11.60;99.90;;;;;;5098688;28;20051;-74
2024/01/01 03:23:32;;;;;;;20.20;5.05;;;11.50;99.90;;;;;;5098250;28;20398;-74
2024/01/01 03:25:57;;;;;;;18.23;4.75;;;11.50;99.90;;;;;;5098860;28;20032;-74
2024/01/01 03:28:23;;;;;;;20.80;5.25;;;11.40;99.90;;;;;;5098549;28;20034;-74
2024/01/01 03:30:49;;;;;;;23.55;5.03;;;11.40;99.90;;;;;;5098624;28;20116;-74
2024/01/01 03:33:14;;;;;;;21.25;5.13;;;11.40;99.90;;;;;;5098908;28;20105;-74
2024/01/01 03:35:40;;;;;;;19.10;5.03;;;11.40;99.90;;;;;;5098586;28;20111;-74
2024/01/01 03:38:05;;;;;;;23.02;5.10;;;11.40;99.90;;;;;;5098107;28;20065;-74
2024/01/01 03:40:31;;;;;;;20.58;5.43;;;11.30;99.90;;;;;;5098640;28;20095;-74
2024/01/01 03:42:57;;;;;;;23.77;4.95;;;11.30;99.90;;;;;;5098019;28;20462;-74
2024/01/01 03:45:23;;;;;;;21.25;4.63;;;11.30;99.90;;;;;;5098498;28;20048;-74
2024/01/01 03:47:48;;;;;;;21.02;4.93;;;11.30;99.90;;;;;;5098288;28;20077;-74
2024/01/01 03:50:16;;;;;;;19.13;4.78;;;11.30;99.90;;;;;;5098372;28;20024;-74
2024/01/01 03:52:41;;;;;;;16.05;4.80;;;11.30;99.90;;;;;;5098429;28;20024;-74
2024/01/01 03:55:07;;;;;;;26.25;5.28;;;11.20;99.90;;;;;;5098333;28;20020;-74
2024/01/01 03:57:33;;;;;;;17.55;4.72;;;11.20;99.90;;;;;;5098250;28;20522;-74
2024/01/01 03:59:59;;;;;;;21.27;4.57;;;11.20;99.90;;;;;;5098416;28;20020;-74
2024/01/01 04:02:25;;;;;;;21.23;4.18;;;11.20;99.90;;;;;;5094372;28;20107;-74
2024/01/01 04:04:51;;;;;;;14.68;4.03;;;11.20;99.90;;;;;;5095034;28;20620;-74
2024/01/01 04:07:17;;;;;;;15.57;4.10;;;11.20;99.90;;;;;;5094752;28;20124;-74
2024/01/01 04:09:45;;;;;;;15.40;3.83;;;11.30;99.90;;;;;;5095068;28;20505;-74
2024/01/01 04:12:11;;;;;;;22.52;5.40;;;11.30;99.90;;;;;;5094868;28;20039;-74
2024/01/01 04:14:36;;;;;;;14.40;4.18;;;11.30;99.90;;;;;;5095318;28;20024;-74
2024/01/01 04:17:03;;;;;;;20.20;4.80;;;11.30;99.90;;;;;;5094710;28;20485;-73
2024/01/01 04:19:29;;;;;;;18.15;4.20;;;11.30;99.90;;;;;;5094711;28;20028;-73
2024/01/01 04:21:55;;;;;;;16.92;3.83;;;11.30;99.90;;;;;;5094848;28;20016;-73
2024/01/01 04:24:20;;;;;;;14.98;4.28;;;11.30;99.90;;;;;;5094682;28;20505;-73
2024/01/01 04:26:46;;;;;;;20.23;6.97;;;11.20;99.90;;;;;;5094537;28;20040;-73
2024/01/01 04:29:13;;;;;;;17.40;5.45;;;11.10;99.90;;;;;;5094537;28;20024;-73
2024/01/01 04:31:39;;;;;;;15.43;4.32;;;11.20;99.90;;;;;;5094398;28;20062;-73
2024/01/01 04:34:05;;;;;;;14.32;3.40;;;11.40;99.90;;;;;;5094663;28;20043;-73
2024/01/01 04:36:30;;;;;;;14.55;3.53;;;11.50;99.90;;;;;;5094000;28;20028;-73
2024/01/01 04:38:56;;;;;;;15.80;3.35;;;11.60;99.90;;;;;;5094713;28;20036;-73
2024/01/01 04:41:22;;;;;;;13.90;3.90;;;11.70;99.90;;;;;;5094166;28;20459;-73
2024/01/01 04:43:47;;;;;;;13.57;3.65;;;11.70;99.90;;;;;;5094314;28;20024;-73
2024/01/01 04:46:13;;;;;;;16.40;4.47;;;11.70;99.90;;;;;;5094252;28;20414;-74
2024/01/01 04:48:38;;;;;;;13.60;3.63;;;11.80;99.90;;;;;;5094052;28;20051;-73
2024/01/01 04:51:05;;;;;;;16.63;4.00;;;11.60;99.90;;;;;;5094142;28;20060;-73
2024/01/01 04:53:30;;;;;;;14.70;4.03;;;11.40;99.90;;;;;;5093943;28;20093;-73
2024/01/01 04:55:56;;;;;;;16.95;4.22;;;11.30;99.90;;;;;;5094145;28;20122;-74
2024/01/01 04:58:22;;;;;;;18.20;4.10;;;11.20;99.90;;;;;;5093980;28;20016;-73
2024/01/01 05:00:47;;;;;;;14.43;4.18;;;11.20;99.90;;;;;;5094268;28;20024;-74
2024/01/01 05:03:13;;;;;;;19.42;4.25;;;11.10;99.90;;;;;;5094001;28;20141;-73
2024/01/01 05:05:39;;;;;;;15.57;3.60;;;11.10;99.90;;;;;;5093400;28;20488;-73
2024/01/01 05:08:05;;;;;;;15.93;3.78;;;11.00;99.90;;;;;;5093770;28;20422;-73
2024/01/01 05:10:31;;;;;;;15.45;3.60;;;11.00;99.90;;;;;;5093795;28;20024;-73
2024/01/01 05:12:56;;;;;;;20.52;4.53;;;11.00;99.90;;;;;;5093517;28;20032;-73
2024/01/01 05:15:22;;;;;;;17.90;4.00;;;10.90;99.90;;;;;;5093780;28;20028;-73
2024/01/01 05:17:47;;;;;;;16.85;4.25;;;10.90;99.90;;;;;;5093494;28;20494;-73
2024/01/01 05:20:13;;;;;;;18.08;4.82;;;10.90;99.90;;;;;;5091933;28;20467;-73
2024/01/01 05:22:40;;;;;;;19.08;4.53;;;10.90;99.90;;;;;;5093975;28;20024;-73
2024/01/01 05:25:06;;;;;;;18.63;4.20;;;10.90;99.90;;;;;;5093499;28;20024;-73
2024/01/01 05:27:32;;;;;;;14.95;3.80;;;10.90;99.90;;;;;;5093449;28;20031;-74
2024/01/01 05:29:58;;;;;;;15.15;3.60;;;10.90;99.90;;;;;;5093230;28;20103;-74
2024/01/01 05:32:24;;;;;;;15.38;3.97;;;10.80;99.90;;;;;;5093817;28;20031;-73
2024/01/01 05:34:50;;;;;;;18.70;4.28;;;10.80;99.90;;;;;;5092961;28;20028;-74
2024/01/01 05:37:15;;;;;;;12.70;3.70;;;10.70;99.90;;;;;;5093248;28;20027;-73
2024/01/01 05:39:41;;;;;;;17.90;3.55;;;10.80;99.90;;;;;;5093203;28;20031;-74
2024/01/01 05:42:06;;;;;;;16.10;3.30;;;10.70;99.90;;;;;;5092937;28;20029;-73
2024/01/01 05:44:32;;;;;;;12.57;3.28;;;10.70;99.90;;;;;;5093321;28;20032;-72
2024/01/01 05:46:58;;;;;;;12.93;3.38;;;10.70;99.90;;;;;;5092607;28;20068;-74
2024/01/01 05:49:23;;;;;;;13.10;3.60;;;10.70;99.90;;;;;;5092978;28;20035;-73
2024/01/01 05:51:49;;;;;;;13.88;3.50;;;10.60;99.90;;;;;;5093162;28;20040;-73
2024/01/01 05:54:15;;;;;;;13.93;4.07;;;10.60;99.90;;;;;;5092870;28;20081;-73
2024/01/01 05:56:42;;;;;;;16.55;3.65;;;10.60;99.90;;;;;;5092752;28;20429;-73
2024/01/01 05:59:07;;;;;;;17.92;3.80;;;10.50;99.90;;;;;;5093136;28;20027;-73
2024/01/01 06:01:33;;;;;;;18.52;4.00;;;10.50;99.90;;;;;;5092753;28;20077;-74
2024/01/01 06:03:59;;;;;;;15.05;4.07;;;10.50;99.90;;;;;;5092348;28;20379;-74
2024/01/01 06:06:24;;;;;;;17.40;3.97;;;10.50;99.90;;;;;;5092992;28;20494;-74
2024/01/01 06:08:50;;;;;;;15.68;4.07;;;10.50;99.90;;;;;;5092672;28;20024;-74
2024/01/01 06:11:19;;;;;;;15.63;3.90;;;10.50;99.90;;;;;;5092709;28;20032;-73
2024/01/01 06:13:45;;;;;;;19.23;4.07;;;10.60;99.90;;;;;;5092591;28;20035;-73
2024/01/01 06:16:11;;;;;;;16.27;4.13;;;10.80;99.90;;;;;;5092224;28;20105;-73
2024/01/01 06:18:37;;;;;;;16.42;4.15;;;11.10;99.90;;;;;;5092454;28;20035;-73
2024/01/01 06:21:03;;;;;;;15.75;4.00;;;11.30;99.90;;;;;;5092433;28;20036;-73
2024/01/01 06:23:28;;;;;;;16.42;4.38;;;11.40;99.90;;;;;;5092775;28;20023;-73
2024/01/01 06:25:54;;;;;;;17.15;4.22;;;11.50;99.90;;;;;;5092038;28;20028;-73
2024/01/01 06:28:20;;;;;;;12.07;3.58;;;11.50;99.90;;;;;;5092248;28;20024;-73
2024/01/01 06:30:46;;;;;;;14.57;3.90;;;11.50;99.90;;;;;;5092078;28;20050;-74
2024/01/01 06:33:11;;;;;;;13.57;3.75;;;11.50;99.90;;;;;;5092413;28;20093;-73
2024/01/01 06:35:37;;;;;;;16.38;4.28;;;11.30;99.90;;;;;;5092751;28;20032;-73
2024/01/01 06:38:03;;;;;;;14.80;3.88;;;11.20;99.90;;;;;;5092271;28;20024;-73
2024/01/01 06:40:29;;;;;;;18.13;3.97;;;11.10;99.90;;;;;;5092177;28;20028;-74
2024/01/01 06:42:54;;;;;;;13.63;3.55;;;11.00;99.90;;;;;;5092240;28;20410;-73
2024/01/01 06:45:20;;;;;;;17.58;3.90;;;11.00;99.90;;;;;;5091925;28;20105;-73
2024/01/01 06:47:46;;;;;;;15.55;4.15;;;11.00;99.90;;;;;;5092285;28;20076;-73
2024/01/01 06:50:12;;;;;;;17.05;4.20;;;10.90;99.90;;;;;;5091788;28;20031;-73
2024/01/01 06:52:37;;;;;;;14.20;3.85;;;10.80;99.90;;;;;;5092104;28;20032;-73
2024/01/01 06:55:03;;;;;;;12.68;2.97;;;10.90;99.90;;;;;;5092552;28;20470;-71
2024/01/01 06:57:29;;;;;;;10.77;2.67;;;10.90;99.90;;;;;;5091930;28;20378;-72
2024/01/01 06:59:54;;;;;;;12.15;2.35;;;10.80;99.90;;;;;;5091845;28;20074;-72
2024/01/01 07:02:20;;;;;;;8.68;2.40;;;10.70;99.90;;;;;;5092019;28;20032;-73
2024/01/01 07:04:46;;;;;;;8.48;2.13;;;10.70;99.90;;;;;;5092037;28;20114;-73
2024/01/01 07:07:11;;;;;;;7.78;2.10;;;10.70;99.90;;;;;;5092333;28;20036;-73
2024/01/01 07:09:38;;;;;;;9.63;2.55;;;10.70;99.90;;;;;;5091998;28;20474;-73
2024/01/01 07:12:36;;;;;;;9.20;2.63;;;10.60;99.90;;;;;;5091813;28;20032;-73
2024/01/01 07:15:02;;;;;;;16.42;4.10;;;10.60;99.90;;;;;;5049567;28;20116;-73
2024/01/01 07:17:27;;;;;;;20.45;4.18;;;10.70;99.90;;;;;;5049484;28;20416;-73
2024/01/01 07:19:53;;;;;;;19.85;4.32;;;10.70;99.90;;;;;;5049509;28;20071;-73
2024/01/01 07:22:19;;;;;;;22.08;5.13;;;10.80;99.90;;;;;;5049457;28;20041;-73
2024/01/01 07:24:44;;;;;;;17.85;4.40;;;10.70;99.90;;;;;;5049307;28;20440;-73
2024/01/01 07:27:11;;;;;;;19.90;4.95;;;10.80;99.90;;;;;;5049378;28;20127;-73
2024/01/01 07:29:37;;;;;;;21.13;4.75;;;10.80;99.90;;;;;;5049029;28;20558;-73
2024/01/01 07:32:04;;;;;;;22.02;4.28;;;10.80;99.90;;;;;;5049286;28;20075;-73
2024/01/01 07:34:29;;;;;;;20.60;5.20;;;10.90;99.90;;;;;;5049863;28;20075;-73
2024/01/01 07:36:57;;;;;;;17.23;4.45;;;10.80;99.90;;;;;;5050722;28;20029;-73
2024/01/01 07:39:24;;;;;;;18.63;3.95;;;10.80;99.90;;;;;;5053015;28;20021;-73
2024/01/01 07:41:51;;;;;;;14.70;4.35;;;10.80;99.90;;;;;;5052800;28;20458;-73
2024/01/01 07:44:16;;;;;;;12.02;3.38;;;10.80;99.90;;;;;;5052644;28;20071;-73
2024/01/01 07:46:42;;;;;;;14.75;4.00;;;10.80;99.90;;;;;;5052760;28;20542;-73
2024/01/01 07:49:08;;;;;;;13.73;3.65;;;10.70;99.90;;;;;;5053319;28;20391;-73
2024/01/01 07:51:34;;;;;;;15.15;3.80;;;10.70;99.90;;;;;;5072431;28;20115;-73
2024/01/01 07:54:00;;;;;;;11.20;3.75;;;10.70;99.90;;;;;;5075227;28;20032;-73
2024/01/01 07:56:26;;;;;;;11.73;3.47;;;10.70;99.90;;;;;;5074963;28;20032;-73
2024/01/01 07:58:55;;;;;;;14.07;3.70;;;10.70;99.90;;;;;;5074590;28;20020;-72
2024/01/01 08:01:21;;;;;;;9.95;3.40;;;10.90;99.90;;;;;;5075265;28;20460;-73
2024/01/01 08:03:47;;;;;;;10.85;3.10;;;11.20;99.90;;;;;;5075064;28;20052;-73
2024/01/01 08:06:13;;;;;;;11.93;3.45;;;11.40;99.90;;;;;;5074632;28;20048;-72
2024/01/01 08:08:39;;;;;;;13.05;3.70;;;11.50;99.90;;;;;;5074712;28;20028;-72
2024/01/01 08:11:06;;;;;;;12.38;3.72;;;11.50;99.90;;;;;;5074615;28;20033;-72
2024/01/01 08:13:31;;;;;;;13.90;3.67;;;11.50;99.90;;;;;;5074489;28;20025;-72
2024/01/01 08:15:57;;;;;;;12.13;3.70;;;11.60;99.90;;;;;;5074529;28;20444;-72
2024/01/01 08:18:23;;;;;;;13.05;3.80;;;11.60;99.90;;;;;;5074449;28;20017;-73
2024/01/01 08:20:49;;;;;;;10.85;3.45;;;11.60;99.90;;;;;;5074559;28;20142;-73
2024/01/01 08:23:15;;;;;;;11.77;3.53;;;11.40;99.90;;;;;;5074781;28;20020;-73
2024/01/01 08:25:40;;;;;;;9.73;3.50;;;11.30;99.90;;;;;;5074280;28;20113;-73
2024/01/01 08:28:07;;;;;;;13.82;3.60;;;11.20;99.90;;;;;;5073717;28;20297;-73
2024/01/01 08:30:32;;;;;;;14.98;3.85;;;11.10;99.90;;;;;;5074713;28;20024;-73
2024/01/01 08:32:58;;;;;;;12.63;3.25;;;11.00;99.90;;;;;;5074320;28;20379;-73
2024/01/01 08:35:24;;;;;;;14.65;3.80;;;10.90;99.90;;;;;;5074339;28;20391;-73
2024/01/01 08:37:50;;;;;;;9.15;2.90;;;11.00;99.90;;;;;;5074271;28;20032;-73
2024/01/01 08:40:16;;;;;;;11.20;3.13;;;11.00;99.90;;;;;;5077415;28;20039;-73
2024/01/01 08:42:41;;;;;;;10.88;2.92;;;10.90;99.90;;;;;;5093850;28;20065;-73
2024/01/01 08:45:09;;;;;;;9.90;2.90;;;10.90;99.90;;;;;;5094065;28;20052;-73
2024/01/01 08:47:34;;;;;;;9.70;3.08;;;10.90;99.90;;;;;;5093740;28;20034;-73
2024/01/01 08:50:02;;;;;;;6.60;2.30;;;10.90;99.90;;;;;;5094250;28;20055;-73
2024/01/01 08:52:28;;;;;;;7.18;2.50;;;10.90;99.90;;;;;;5093933;28;20028;-73
2024/01/01 08:54:53;;;;;;;7.85;2.05;;;10.90;99.90;;;;;;5094016;28;20031;-73
2024/01/01 08:57:19;;;;;;;6.07;2.28;;;10.90;99.90;;;;;;5093951;28;20486;-73
2024/01/01 08:59:45;;;;;;;5.55;2.03;;;10.90;99.90;;;;;;5094126;28;20028;-73
2024/01/01 09:02:10;;;;;;;7.13;2.50;;;10.90;99.90;;;;;;5093977;28;20024;-73
2024/01/01 09:04:36;;;;;;;7.90;2.50;;;10.90;99.90;;;;;;5094397;28;20032;-73
2024/01/01 09:07:03;;;;;;;8.93;2.50;;;10.90;99.90;;;;;;5093575;28;20123;-73
2024/01/01 09:09:29;;;;;;;6.00;2.28;;;11.00;99.90;;;;;;5093882;28;20028;-73
2024/01/01 09:11:55;;;;;;;7.15;2.40;;;11.00;99.90;;;;;;5093543;28;20035;-73
2024/01/01 09:14:21;;;;;;;7.47;2.35;;;11.00;99.90;;;;;;5093547;28;20024;-73
2024/01/01 09:16:47;;;;;;;6.30;2.30;;;11.10;99.90;;;;;;5093987;28;20024;-73
2024/01/01 09:19:15;;;;;;;9.30;2.83;;;11.10;99.90;;;;;;5093614;28;20057;-73
2024/01/01 09:21:40;;;;;;;9.18;2.38;;;11.10;99.90;;;;;;5093507;28;20834;-74
2024/01/01 09:24:09;;;;;;;9.18;2.90;;;11.20;99.90;;;;;;5093465;28;20032;-73
2024/01/01 09:26:35;;;;;;;6.97;3.08;;;11.20;99.90;;;;;;5093391;28;20036;-73
2024/01/01 09:29:01;;;;;;;7.72;2.60;;;11.20;99.90;;;;;;5093459;28;20038;-73
2024/01/01 09:31:27;;;;;;;7.18;3.20;;;11.30;99.90;;;;;;5093292;28;20099;-73
2024/01/01 09:33:54;;;;;;;8.02;2.50;;;11.30;99.90;;;;;;5093326;28;20028;-73
2024/01/01 09:36:20;;;;;;;9.40;2.85;;;11.30;99.90;;;;;;5093517;28;20080;-73
2024/01/01 09:38:45;;;;;;;9.70;2.55;;;11.30;99.90;;;;;;5093287;28;20048;-73
2024/01/01 09:41:12;;;;;;;7.22;2.70;;;11.40;99.90;;;;;;5092791;28;20089;-73
2024/01/01 09:43:38;;;;;;;7.60;2.60;;;11.30;99.90;;;;;;5093148;28;20031;-73
2024/01/01 09:46:04;;;;;;;8.90;3.13;;;11.40;99.90;;;;;;5092786;28;20046;-74
2024/01/01 09:48:30;;;;;;;10.57;3.00;;;11.40;99.90;;;;;;5093583;28;20039;-73
2024/01/01 09:50:56;;;;;;;8.70;3.17;;;11.60;99.90;;;;;;5093058;28;20019;-73
2024/01/01 09:53:21;;;;;;;7.50;2.70;;;11.80;99.90;;;;;;5092886;28;20501;-73
2024/01/01 09:55:51;;;;;;;10.48;2.83;;;12.10;99.90;;;;;;5091450;28;20017;-72
2024/01/01 09:58:18;;;;;;;12.95;3.13;;;12.20;99.90;;;;;;5092721;28;20039;-73
2024/01/01 10:00:43;;;;;;;11.35;3.22;;;12.20;99.90;;;;;;5092264;28;20076;-73
2024/01/01 10:03:10;;;;;;;8.98;2.75;;;12.40;99.90;;;;;;5092858;28;20036;-72
2024/01/01 10:05:38;;;;;;;9.82;2.75;;;12.60;99.90;;;;;;5092921;28;20028;-72
2024/01/01 10:08:14;;;;;;;9.82;3.38;;;12.60;99.90;;;;;;5092710;28;20378;-72
2024/01/01 10:10:41;;;;;;;9.88;3.38;;;12.60;99.90;;;;;;5092723;28;20044;-72
2024/01/01 10:13:14;;;;;;;10.80;2.88;;;12.40;99.90;;;;;;5092766;28;20381;-72
2024/01/01 10:15:42;;;;;;;9.90;3.10;;;12.20;99.90;;;;;;5092624;28;20058;-73
2024/01/01 10:18:16;;;;;;;14.18;3.38;;;12.10;99.90;;;;;;5092684;28;20032;-73
2024/01/01 10:20:43;;;;;;;8.55;2.70;;;12.00;99.90;;;;;;5092801;28;20390;-73
2024/01/01 10:23:20;;;;;;;10.30;3.17;;;11.90;99.90;;;;;;5092179;28;20024;-73
2024/01/01 10:26:01;;;;;;;9.70;2.95;;;11.90;99.90;;;;;;5092742;28;20032;-73
2024/01/01 10:28:30;;;;;;;10.93;3.15;;;11.90;99.90;;;;;;5092468;28;20054;-73
2024/01/01 10:30:56;;;;;;;13.20;3.55;;;11.90;99.90;;;;;;5092351;28;20032;-73
2024/01/01 10:33:23;;;;;;;10.10;3.30;;;11.90;99.90;;;;;;5092606;28;20386;-73
2024/01/01 10:35:50;;;;;;;13.35;3.83;;;11.90;99.90;;;;;;5092423;28;20016;-73
2024/01/01 10:38:17;;;;;;;10.77;3.65;;;12.00;99.90;;;;;;5091923;28;20517;-73
2024/01/01 10:40:43;;;;;;;10.88;3.45;;;12.00;99.90;;;;;;5092203;28;20012;-73
2024/01/01 10:43:10;;;;;;;10.38;3.17;;;12.10;99.90;;;;;;5092189;28;20053;-73
2024/01/01 10:45:36;;;;;;;9.25;2.97;;;12.10;99.90;;;;;;5092351;28;20059;-73
2024/01/01 10:48:08;;;;;;;11.82;3.03;;;12.10;99.90;;;;;;5092038;28;20068;-73
2024/01/01 10:50:45;;;;;;;11.63;2.75;;;12.10;99.90;;;;;;5092225;28;20035;-73
2024/01/01 10:53:18;;;;;;;10.60;2.80;;;12.10;99.90;;;;;;5091891;28;20078;-73
2024/01/01 10:55:46;;;;;;;9.48;3.35;;;12.20;99.90;;;;;;5092062;28;20367;-73
2024/01/01 10:58:30;;;;;;;11.00;2.90;;;12.20;99.90;;;;;;5092106;28;20032;-73
2024/01/01 11:01:11;;;;;;;9.30;2.33;;;12.20;99.90;;;;;;5092068;28;20062;-73
2024/01/01 11:03:38;;;;;;;7.53;2.42;;;12.20;99.90;;;;;;5091851;28;20044;-73
2024/01/01 11:06:24;;;;;;;6.93;2.20;;;12.20;99.90;;;;;;5091883;28;20039;-73
2024/01/01 11:08:50;;;;;;;8.68;2.60;;;12.30;99.90;;;;;;5091836;28;20024;-73
2024/01/01 11:11:32;;;;;;;8.82;2.85;;;12.30;99.90;;;;;;5094364;28;20028;-73
2024/01/01 11:13:58;;;;;;;8.45;2.78;;;12.30;99.90;;;;;;5096128;28;20550;-73
2024/01/01 11:16:24;;;;;;;10.55;3.38;;;12.30;99.90;;;;;;5095931;28;20020;-73
2024/01/01 11:18:51;;;;;;;11.98;3.65;;;12.30;99.90;;;;;;5096046;28;20061;-73
2024/01/01 11:21:31;;;;;;;9.70;2.80;;;12.30;99.90;;;;;;5096052;28;20040;-73
2024/01/01 11:24:01;;;;;;;9.98;3.72;;;12.40;99.90;;;;;;5096152;28;20024;-73
2024/01/01 11:26:34;;;;;;;12.88;3.15;;;12.40;99.90;;;;;;5095782;28;20031;-73
2024/01/01 11:29:05;;;;;;;13.25;3.30;;;12.40;99.90;;;;;;5095984;28;20389;-73
2024/01/01 11:31:32;;;;;;;13.63;3.90;;;12.50;99.90;;;;;;5095776;28;20024;-73
2024/01/01 11:34:18;;;;;;;16.27;3.78;;;12.60;99.90;;;;;;5095653;28;20070;-73
2024/01/01 11:36:44;;;;;;;14.25;4.28;;;12.60;99.90;;;;;;5095414;28;20048;-73
2024/01/01 11:39:10;;;;;;;14.40;4.82;;;12.80;99.90;;;;;;5095539;28;20024;-73
2024/01/01 11:41:36;;;;;;;18.52;4.57;;;13.00;99.90;;;;;;5095415;28;20502;-73
2024/01/01 11:44:15;;;;;;;16.60;4.35;;;13.20;99.90;;;;;;5095350;28;20073;-73
2024/01/01 11:46:41;;;;;;;14.52;3.55;;;13.50;99.90;;;;;;5094945;28;20142;-73
2024/01/01 11:49:08;;;;;;;17.77;4.10;;;13.70;99.90;;;;;;5095869;28;20162;-73
2024/01/01 11:51:55;;;;;;;11.52;2.95;;;13.70;99.90;;;;;;5095007;28;20039;-73
2024/01/01 11:54:21;;;;;;;12.70;3.20;;;13.80;99.90;;;;;;5095322;28;20012;-73
2024/01/01 11:56:49;;;;;;;14.27;3.53;;;13.80;99.90;;;;;;5095036;28;20512;-73
2024/01/01 11:59:16;;;;;;;13.60;3.45;;;13.80;99.90;;;;;;5095264;28;20043;-73
2024/01/01 12:01:44;;;;;;;13.70;3.33;;;13.60;99.90;;;;;;5094991;28;20568;-73
2024/01/01 12:04:09;;;;;;;16.02;3.53;;;13.40;99.90;;;;;;5094655;28;20104;-73
2024/01/01 12:06:36;;;;;;;11.10;3.70;;;13.30;99.90;;;;;;5095290;28;20468;-74
2024/01/01 12:09:05;;;;;;;17.52;3.60;;;13.20;99.90;;;;;;5095203;28;20482;-73
2024/01/01 12:11:32;;;;;;;12.25;3.03;;;13.10;99.90;;;;;;5094932;28;20055;-73
2024/01/01 12:13:58;;;;;;;13.60;3.65;;;13.10;99.90;;;;;;5095317;28;20032;-73
2024/01/01 12:16:24;;;;;;;14.27;3.83;;;13.20;99.90;;;;;;5094342;28;20082;-74
2024/01/01 12:19:01;;;;;;;19.48;4.90;;;13.10;99.90;;;;;;5094884;28;20555;-73
2024/01/01 12:21:45;;;;;;;17.90;4.40;;;13.10;99.90;;;;;;5094541;28;20101;-73
2024/01/01 12:24:16;;;;;;;15.57;4.35;;;13.10;99.90;;;;;;5094481;28;20066;-73
2024/01/01 12:26:44;;;;;;;20.73;4.30;;;13.10;99.90;;;;;;5094948;28;20473;-74
2024/01/01 12:29:12;;;;;;;18.83;4.72;;;13.10;99.90;;;;;;5094611;28;20099;-73
2024/01/01 12:31:39;;;;;;;17.38;4.53;;;13.10;99.90;;;;;;5094494;28;20038;-74
2024/01/01 12:34:06;;;;;;;19.10;4.63;;;13.10;99.90;;;;;;5094222;28;20025;-73
2024/01/01 12:36:33;;;;;;;18.27;4.93;;;13.00;99.90;;;;;;5094462;28;20104;-73